Time;durP1;ratioP1;P1;durP2;ratioP2;P2;SDS_P1;SDS_P2;PMS_P1;PMS_P2;Temp;Humidity;BMP_temperature;BMP_pressure;BME280_temperature;BME280_humidity;BME280_pressure;Samples;Min_cycle;Max_cycle;Signal;HPM_P1;HPM_P2
2021/08/11 00:02:26;;;;;;;;;;;;;;;15.04;60.11;100865.58;1760914;80;20197;-78
2021/08/11 00:04:53;;;;;;;;;;;;;;;15.06;60.16;100870.29;1759848;80;20503;-78
2021/08/11 00:07:19;;;;;;;;;;;;;;;15.09;60.20;100860.59;1758089;81;20536;-78
2021/08/11 00:09:45;;;;;;;;;;;;;;;15.12;60.27;100847.93;1743670;80;400953;-78
2021/08/11 00:12:11;;;;;;;;;;;;;;;15.13;60.36;100847.03;1745189;82;20820;-78
2021/08/11 00:14:37;;;;;;;;;;;;;;;15.14;60.42;100850.03;1740068;81;20210;-78
2021/08/11 00:17:03;;;;;;;;;;;;;;;15.12;60.49;100860.50;1748675;82;20568;-78
2021/08/11 00:19:29;;;;;;;;;;;;;;;15.12;60.59;100855.74;1749354;82;20197;-78
2021/08/11 00:21:55;;;;;;;;;;;;;;;15.15;60.64;100875.19;1741422;81;20537;-78
2021/08/11 00:24:21;;;;;;;;;;;;;;;15.14;60.72;100883.90;1749635;82;20216;-78
2021/08/11 00:26:47;;;;;;;;;;;;;;;15.16;60.89;100872.53;1748119;81;20395;-78
2021/08/11 00:29:17;;;;;;;;;;;;;;;15.22;60.90;100873.65;1727967;81;20542;-78
2021/08/11 00:31:43;;;;;;;;;;;;;;;15.27;60.95;100873.95;1728901;83;20234;-78
2021/08/11 00:34:10;;;;;;;;;;;;;;;15.31;60.94;100879.02;1731410;83;20454;-78
2021/08/11 00:36:39;;;;;;;;;;;;;;;15.34;60.95;100881.53;1731198;81;20574;-78
2021/08/11 00:39:05;;;;;;;;;;;;;;;15.37;60.98;100883.19;1728221;82;20208;-78
2021/08/11 00:41:32;;;;;;;;;;;;;;;15.40;61.03;100887.86;1694633;84;20209;-78
2021/08/11 00:43:58;;;;;;;;;;;;;;;15.42;61.04;100885.20;1664371;86;20552;-78
2021/08/11 00:46:24;;;;;;;;;;;;;;;15.42;61.09;100885.20;1664403;85;20163;-78
2021/08/11 00:48:50;;;;;;;;;;;;;;;15.42;61.10;100886.06;1667402;84;20742;-78
2021/08/11 00:51:16;;;;;;;;;;;;;;;15.43;61.17;100888.21;1671930;84;20228;-78
2021/08/11 00:53:44;;;;;;;;;;;;;;;15.42;60.98;100893.02;1659878;85;20733;-78
2021/08/11 00:56:18;;;;;;;;;;;;;;;15.39;61.25;100886.60;1656346;86;20102;-78
2021/08/11 00:59:11;;;;;;;;;;;;;;;15.39;61.39;100875.73;1691978;84;20399;-78
2021/08/11 01:01:48;;;;;;;;;;;;;;;15.41;61.44;100879.14;1690255;83;20128;-78
2021/08/11 01:04:17;;;;;;;;;;;;;;;15.46;61.51;100880.30;1698386;83;20149;-78
2021/08/11 01:06:44;;;;;;;;;;;;;;;15.48;61.48;100883.70;1696327;83;20156;-78
2021/08/11 01:09:15;;;;;;;;;;;;;;;15.50;61.60;100890.58;1697251;82;20139;-78
2021/08/11 01:11:45;;;;;;;;;;;;;;;15.52;61.67;100891.37;1698558;83;20106;-78
2021/08/11 01:14:13;;;;;;;;;;;;;;;15.52;61.61;100892.69;1708721;83;20127;-78
2021/08/11 01:16:40;;;;;;;;;;;;;;;15.55;61.80;100886.07;1714400;83;20109;-78
2021/08/11 01:19:06;;;;;;;;;;;;;;;15.61;61.84;100894.59;1691377;82;20131;-78
2021/08/11 01:21:42;;;;;;;;;;;;;;;15.66;61.59;100903.12;1690208;85;20197;-78
2021/08/11 01:24:11;;;;;;;;;;;;;;;15.68;61.90;100890.44;1690313;85;20094;-78
2021/08/11 01:27:01;;;;;;;;;;;;;;;15.71;61.90;100890.80;1697527;82;20096;-78
2021/08/11 01:29:30;;;;;;;;;;;;;;;15.74;62.00;100888.94;1682464;84;20111;-78
2021/08/11 01:32:06;;;;;;;;;;;;;;;15.77;62.08;100889.29;1684562;84;20107;-78
2021/08/11 01:34:37;;;;;;;;;;;;;;;15.82;62.06;100891.30;1685367;83;20132;-78
2021/08/11 01:37:07;;;;;;;;;;;;;;;15.84;62.03;100896.86;1673400;84;20136;-78
2021/08/11 01:39:44;;;;;;;;;;;;;;;15.86;62.14;100891.14;1651293;86;20455;-78
2021/08/11 01:42:18;;;;;;;;;;;;;;;15.89;62.24;100888.89;1682030;83;20108;-78
2021/08/11 01:45:00;;;;;;;;;;;;;;;15.94;62.25;100894.80;1655863;85;20103;-78
2021/08/11 01:47:42;;;;;;;;;;;;;;;15.99;62.26;100897.25;1681289;85;20463;-78
2021/08/11 01:50:10;;;;;;;;;;;;;;;16.01;62.35;100897.60;1679282;83;20139;-78
2021/08/11 01:52:42;;;;;;;;;;;;;;;16.04;62.42;100905.33;1690925;84;20097;-78
2021/08/11 01:55:11;;;;;;;;;;;;;;;16.07;62.41;100899.16;1690260;84;20109;-78
2021/08/11 01:57:39;;;;;;;;;;;;;;;16.11;62.46;100900.75;1684306;84;20132;-78
2021/08/11 02:00:09;;;;;;;;;;;;;;;16.14;62.48;100896.25;1690681;83;20151;-78
2021/08/11 02:02:37;;;;;;;;;;;;;;;16.19;62.52;100897.39;1689877;84;20119;-78
2021/08/11 02:05:05;;;;;;;;;;;;;;;16.21;62.45;100902.97;1684613;84;20133;-78
2021/08/11 02:07:35;;;;;;;;;;;;;;;16.22;62.55;100903.36;1684925;83;20095;-78
2021/08/11 02:10:04;;;;;;;;;;;;;;;16.24;62.49;100905.92;1698090;83;20109;-78
2021/08/11 02:12:30;;;;;;;;;;;;;;;16.25;62.53;100905.02;1704056;84;20103;-78
2021/08/11 02:15:10;;;;;;;;;;;;;;;16.27;62.55;100902.35;1678985;83;20107;-78
2021/08/11 02:17:38;;;;;;;;;;;;;;;16.27;62.55;100897.13;1690879;83;20686;-78
2021/08/11 02:20:06;;;;;;;;;;;;;;;16.29;62.42;100899.23;1695280;83;20111;-78
2021/08/11 02:22:32;;;;;;;;;;;;;;;16.26;62.57;100903.26;1692322;84;20145;-78
2021/08/11 02:24:58;;;;;;;;;;;;;;;16.26;62.58;100909.33;1692081;84;20131;-78
2021/08/11 02:27:27;;;;;;;;;;;;;;;16.26;62.58;100908.47;1692004;83;20123;-78
2021/08/11 02:30:11;;;;;;;;;;;;;;;16.24;62.56;100911.14;1678824;85;20157;-78
2021/08/11 02:32:44;;;;;;;;;;;;;;;16.21;62.54;100911.24;1701610;83;20132;-78
2021/08/11 02:35:19;;;;;;;;;;;;;;;16.18;62.46;100912.66;1662873;85;20663;-78
2021/08/11 02:38:01;;;;;;;;;;;;;;;16.12;62.58;100910.25;1684892;84;20207;-78
2021/08/11 02:40:39;;;;;;;;;;;;;;;16.07;62.62;100916.11;1664970;84;20175;-78
2021/08/11 02:43:18;;;;;;;;;;;;;;;16.01;62.62;100916.31;1691390;83;20205;-78
2021/08/11 02:45:46;;;;;;;;;;;;;;;15.98;62.68;100919.02;1690137;84;20170;-78
2021/08/11 02:48:13;;;;;;;;;;;;;;;15.95;62.68;100922.59;1692847;84;20203;-78
2021/08/11 02:50:41;;;;;;;;;;;;;;;15.92;62.66;100923.14;1690501;84;20178;-78
2021/08/11 02:53:08;;;;;;;;;;;;;;;15.88;62.69;100925.84;1664982;83;20237;-78
2021/08/11 02:55:36;;;;;;;;;;;;;;;15.83;62.71;100926.45;1687355;84;20198;-78
2021/08/11 02:58:03;;;;;;;;;;;;;;;15.80;62.73;100927.00;1691705;83;20172;-78
2021/08/11 03:00:29;;;;;;;;;;;;;;;15.77;62.76;100924.48;1692040;84;20252;-78
2021/08/11 03:02:55;;;;;;;;;;;;;;;15.73;62.73;100928.09;1691972;84;20120;-78
2021/08/11 03:05:21;;;;;;;;;;;;;;;15.68;62.75;100929.55;1692020;84;20166;-78
2021/08/11 03:07:48;;;;;;;;;;;;;;;15.64;62.74;100929.24;1686752;83;20112;-78
2021/08/11 03:10:14;;;;;;;;;;;;;;;15.59;62.75;100933.78;1679548;83;20127;-78
2021/08/11 03:12:46;;;;;;;;;;;;;;;15.55;62.77;100931.69;1684348;83;20170;-78
2021/08/11 03:15:14;;;;;;;;;;;;;;;15.51;62.75;100934.44;1691291;84;20139;-78
2021/08/11 03:17:41;;;;;;;;;;;;;;;15.46;62.78;100933.72;1700851;82;20092;-78
2021/08/11 03:20:08;;;;;;;;;;;;;;;15.40;62.83;100937.38;1711702;83;20106;-78
2021/08/11 03:22:34;;;;;;;;;;;;;;;15.35;62.81;100937.11;1697681;82;20139;-78
2021/08/11 03:25:00;;;;;;;;;;;;;;;15.31;62.84;100943.31;1687177;83;20103;-78
2021/08/11 03:27:26;;;;;;;;;;;;;;;15.25;62.83;100941.73;1700383;82;20165;-78
2021/08/11 03:29:52;;;;;;;;;;;;;;;15.19;62.82;100944.53;1702556;83;20189;-78
2021/08/11 03:32:18;;;;;;;;;;;;;;;15.12;62.86;100943.00;1702647;84;20130;-78
2021/08/11 03:34:44;;;;;;;;;;;;;;;15.06;62.92;100944.06;1702497;82;20617;-78
2021/08/11 03:37:16;;;;;;;;;;;;;;;15.03;62.97;100954.57;1699771;82;20123;-78
2021/08/11 03:39:43;;;;;;;;;;;;;;;14.99;62.98;100949.05;1702650;84;20279;-78
2021/08/11 03:42:09;;;;;;;;;;;;;;;14.96;63.04;100951.73;1702916;82;20422;-78
2021/08/11 03:44:35;;;;;;;;;;;;;;;14.93;63.03;100959.63;1694268;83;20179;-78
2021/08/11 03:47:02;;;;;;;;;;;;;;;14.90;63.06;100957.12;1699339;84;20095;-78
2021/08/11 03:49:28;;;;;;;;;;;;;;;14.86;63.13;100959.40;1700980;83;20472;-78
2021/08/11 03:51:54;;;;;;;;;;;;;;;14.82;63.07;100959.08;1698542;82;20169;-78
2021/08/11 03:54:20;;;;;;;;;;;;;;;14.78;63.19;100959.61;1684884;83;20125;-79
2021/08/11 03:56:50;;;;;;;;;;;;;;;14.77;63.27;100960.51;1674141;84;20129;-79
2021/08/11 03:59:16;;;;;;;;;;;;;;;14.77;63.32;100959.66;1703413;82;20264;-78
2021/08/11 04:01:42;;;;;;;;;;;;;;;14.77;63.31;100957.05;1701316;84;20204;-78
2021/08/11 04:04:08;;;;;;;;;;;;;;;14.75;63.27;100952.34;1704104;82;20214;-78
2021/08/11 04:06:34;;;;;;;;;;;;;;;14.70;63.28;100957.67;1621275;84;20199;-78
2021/08/11 04:09:00;;;;;;;;;;;;;;;14.68;63.38;100957.30;1674954;84;20507;-78
2021/08/11 04:11:26;;;;;;;;;;;;;;;14.69;63.49;100966.38;1660016;84;20204;-78
2021/08/11 04:13:53;;;;;;;;;;;;;;;14.71;63.54;100965.03;1703099;84;20215;-78
2021/08/11 04:16:19;;;;;;;;;;;;;;;14.74;63.58;100965.80;1705589;84;20190;-78
2021/08/11 04:18:45;;;;;;;;;;;;;;;14.75;63.57;100974.02;1698391;83;20224;-78
2021/08/11 04:21:11;;;;;;;;;;;;;;;14.72;63.63;100984.51;1705561;84;20185;-78
2021/08/11 04:23:37;;;;;;;;;;;;;;;14.72;63.70;100983.66;1683488;84;20212;-78
2021/08/11 04:26:03;;;;;;;;;;;;;;;14.74;63.81;100985.33;1710365;83;20179;-78
2021/08/11 04:28:29;;;;;;;;;;;;;;;14.77;63.89;100981.34;1697204;83;20157;-78
2021/08/11 04:30:55;;;;;;;;;;;;;;;14.80;63.91;100989.06;1690962;84;20535;-78
2021/08/11 04:33:21;;;;;;;;;;;;;;;14.83;64.00;100983.77;1688468;83;20185;-78
2021/08/11 04:35:47;;;;;;;;;;;;;;;14.86;63.99;100982.84;1688909;84;20135;-78
2021/08/11 04:38:13;;;;;;;;;;;;;;;14.88;64.04;100984.50;1686259;84;20187;-78
2021/08/11 04:40:40;;;;;;;;;;;;;;;14.92;64.11;100987.02;1690625;83;20127;-78
2021/08/11 04:43:06;;;;;;;;;;;;;;;14.96;64.14;100990.80;1690542;83;20194;-78
2021/08/11 04:45:34;;;;;;;;;;;;;;;15.01;64.15;100986.77;1689641;83;20179;-78
2021/08/11 04:48:00;;;;;;;;;;;;;;;15.05;64.18;100984.03;1692529;83;20131;-78
2021/08/11 04:50:26;;;;;;;;;;;;;;;15.08;64.22;100989.12;1622008;84;20167;-78
2021/08/11 04:52:52;;;;;;;;;;;;;;;15.12;64.27;100985.53;1697000;83;20123;-78
2021/08/11 04:55:18;;;;;;;;;;;;;;;15.15;64.26;100991.95;1696695;83;20193;-78
2021/08/11 04:57:44;;;;;;;;;;;;;;;15.17;64.26;100984.95;1691153;84;20166;-77
2021/08/11 05:00:17;;;;;;;;;;;;;;;15.18;64.40;100990.56;1691124;83;20159;-77
2021/08/11 05:02:43;;;;;;;;;;;;;;;15.24;64.44;100996.05;1691523;83;20103;-77
2021/08/11 05:05:09;;;;;;;;;;;;;;;15.29;64.55;100999.37;1690988;84;20157;-77
2021/08/11 05:07:36;;;;;;;;;;;;;;;15.33;64.52;100998.83;1691151;83;20099;-77
2021/08/11 05:10:03;;;;;;;;;;;;;;;15.37;64.60;100997.84;1690453;83;20339;-77
2021/08/11 05:12:30;;;;;;;;;;;;;;;15.42;64.50;100993.35;1688549;84;20111;-77
2021/08/11 05:14:57;;;;;;;;;;;;;;;15.48;64.73;101002.30;1689385;83;20127;-77
2021/08/11 05:17:23;;;;;;;;;;;;;;;15.64;65.06;100996.17;1680442;83;20103;-77
2021/08/11 05:19:50;;;;;;;;;;;;;;;15.99;65.35;100996.37;1668803;84;20107;-77
2021/08/11 05:22:17;;;;;;;;;;;;;;;16.48;65.15;100998.19;1672632;84;20087;-77
2021/08/11 05:24:44;;;;;;;;;;;;;;;17.04;65.28;101004.03;1689666;82;20111;-78
2021/08/11 05:27:15;;;;;;;;;;;;;;;17.70;64.93;101004.13;1699453;82;20126;-78
2021/08/11 05:29:44;;;;;;;;;;;;;;;18.35;64.60;101007.98;1699978;82;20122;-78
2021/08/11 05:32:12;;;;;;;;;;;;;;;18.99;64.62;101004.37;1708947;82;20109;-78
2021/08/11 05:34:42;;;;;;;;;;;;;;;19.65;64.26;101008.30;1671369;84;20143;-78
2021/08/11 05:37:08;;;;;;;;;;;;;;;20.24;63.88;101009.78;1688450;83;20121;-78
2021/08/11 05:39:34;;;;;;;;;;;;;;;20.81;63.72;101017.77;1712626;82;20108;-78
2021/08/11 05:42:01;;;;;;;;;;;;;;;21.34;63.74;101016.70;1713399;83;20137;-78
2021/08/11 05:44:27;;;;;;;;;;;;;;;21.82;63.36;101020.67;1713749;82;20282;-78
2021/08/11 05:47:01;;;;;;;;;;;;;;;22.35;63.06;101025.04;1710421;83;20429;-78
2021/08/11 05:49:29;;;;;;;;;;;;;;;22.86;62.82;101019.41;1697061;83;20321;-78
2021/08/11 05:51:55;;;;;;;;;;;;;;;23.38;62.58;101027.09;1696174;84;20135;-78
2021/08/11 05:54:21;;;;;;;;;;;;;;;23.66;62.29;101021.39;1696975;83;20111;-78
2021/08/11 05:56:48;;;;;;;;;;;;;;;23.86;61.89;101025.39;1696845;83;20130;-78
2021/08/11 05:59:14;;;;;;;;;;;;;;;23.99;61.90;101022.30;1698602;82;20182;-78
2021/08/11 06:01:40;;;;;;;;;;;;;;;24.33;61.82;101028.41;1693378;83;20226;-78
2021/08/11 06:04:26;;;;;;;;;;;;;;;24.64;61.52;101021.02;1695722;83;20218;-78
2021/08/11 06:06:52;;;;;;;;;;;;;;;24.96;61.49;101024.95;1696518;83;20184;-78
2021/08/11 06:09:18;;;;;;;;;;;;;;;25.14;60.75;101022.82;1696007;83;20840;-78
2021/08/11 06:11:53;;;;;;;;;;;;;;;25.11;60.97;101026.16;1668780;85;20476;-78
2021/08/11 06:14:20;;;;;;;;;;;;;;;25.19;61.13;101032.61;1664671;86;20267;-78
2021/08/11 06:16:49;;;;;;;;;;;;;;;25.04;60.58;101034.52;1678948;84;20188;-78
2021/08/11 06:19:16;;;;;;;;;;;;;;;25.25;60.95;101037.95;1670880;84;20193;-78
2021/08/11 06:21:42;;;;;;;;;;;;;;;25.52;60.69;101041.25;1681082;84;20779;-78
2021/08/11 06:24:08;;;;;;;;;;;;;;;25.69;60.02;101048.02;1669463;84;20160;-78
2021/08/11 06:26:36;;;;;;;;;;;;;;;25.72;59.91;101040.70;1701549;82;20421;-78
2021/08/11 06:29:02;;;;;;;;;;;;;;;25.97;59.79;101043.73;1693932;82;20724;-78
2021/08/11 06:31:28;;;;;;;;;;;;;;;26.23;59.59;101044.42;1659812;83;20360;-78
2021/08/11 06:33:54;;;;;;;;;;;;;;;26.46;59.36;101044.06;1656286;83;20207;-78
2021/08/11 06:36:21;;;;;;;;;;;;;;;26.61;59.14;101044.67;1701566;83;20176;-78
2021/08/11 06:38:49;;;;;;;;;;;;;;;26.80;59.02;101042.78;1682703;84;20187;-78
2021/08/11 06:41:33;;;;;;;;;;;;;;;27.00;59.20;101042.12;1682910;84;20224;-78
2021/08/11 06:43:59;;;;;;;;;;;;;;;27.16;58.58;101049.22;1673092;84;20280;-78
2021/08/11 06:46:25;;;;;;;;;;;;;;;27.35;58.34;101041.48;1677136;83;20772;-78
2021/08/11 06:48:53;;;;;;;;;;;;;;;27.59;58.14;101048.47;1672825;84;20134;-78
2021/08/11 06:51:19;;;;;;;;;;;;;;;27.79;58.01;101056.16;1677591;84;20208;-78
2021/08/11 06:53:45;;;;;;;;;;;;;;;27.98;57.70;101052.37;1701782;82;20222;-78
2021/08/11 06:56:11;;;;;;;;;;;;;;;28.15;57.67;101057.11;1681473;83;20749;-78
2021/08/11 06:58:37;;;;;;;;;;;;;;;28.19;57.39;101059.88;1678486;83;20233;-78
2021/08/11 07:01:06;;;;;;;;;;;;;;;27.88;57.13;101059.41;1680332;83;20508;-79
2021/08/11 07:03:32;;;;;;;;;;;;;;;27.26;56.80;101063.95;1704644;83;20191;-79
2021/08/11 07:05:59;;;;;;;;;;;;;;;26.69;57.02;101060.85;1679961;84;20197;-79
2021/08/11 07:08:33;;;;;;;;;;;;;;;26.32;57.04;101058.36;1683015;85;20100;-79
2021/08/11 07:11:02;;;;;;;;;;;;;;;26.11;56.94;101060.39;1671686;84;20123;-79
2021/08/11 07:13:28;;;;;;;;;;;;;;;25.96;56.72;101065.05;1688942;83;20139;-79
2021/08/11 07:15:54;;;;;;;;;;;;;;;25.77;56.54;101070.83;1694757;83;20189;-79
2021/08/11 07:18:20;;;;;;;;;;;;;;;25.47;56.29;101064.59;1695540;83;20754;-79
2021/08/11 07:20:50;;;;;;;;;;;;;;;25.14;56.14;101065.64;1688819;83;20199;-79
2021/08/11 07:23:15;;;;;;;;;;;;;;;24.85;56.17;101075.11;1684852;83;20437;-79
2021/08/11 07:25:41;;;;;;;;;;;;;;;24.70;56.23;101076.99;1677304;83;20249;-79
2021/08/11 07:28:09;;;;;;;;;;;;;;;24.66;56.04;101078.15;1658545;85;20187;-79
2021/08/11 07:30:35;;;;;;;;;;;;;;;24.46;55.94;101074.67;1682522;83;20132;-76
2021/08/11 07:33:03;;;;;;;;;;;;;;;24.48;55.96;101076.73;1680259;83;20147;-80
2021/08/11 07:35:29;;;;;;;;;;;;;;;24.53;55.69;101079.92;1682694;83;20222;-80
2021/08/11 07:37:56;;;;;;;;;;;;;;;24.62;55.88;101074.02;1678865;83;20211;-80
2021/08/11 07:40:24;;;;;;;;;;;;;;;24.61;55.41;101078.09;1684215;84;20107;-80
2021/08/11 07:42:50;;;;;;;;;;;;;;;24.66;55.41;101082.12;1682646;84;20171;-80
2021/08/11 07:45:18;;;;;;;;;;;;;;;24.64;55.45;101084.02;1682862;83;20384;-80
2021/08/11 07:47:52;;;;;;;;;;;;;;;24.62;55.18;101080.63;1683832;84;20095;-80
2021/08/11 07:50:16;;;;;;;;;;;;;;;24.57;55.00;101084.53;1658164;84;20428;-80
2021/08/11 07:52:43;;;;;;;;;;;;;;;24.45;54.68;101078.27;1683764;84;20752;-80
2021/08/11 07:55:09;;;;;;;;;;;;;;;24.28;54.77;101079.88;1683886;84;20116;-80
2021/08/11 07:57:36;;;;;;;;;;;;;;;24.27;54.79;101076.39;1687932;83;20096;-79
2021/08/11 08:00:03;;;;;;;;;;;;;;;24.42;54.65;101078.50;1684135;84;20136;-79
2021/08/11 08:02:29;;;;;;;;;;;;;;;24.48;54.68;101075.89;1686026;83;20103;-79
2021/08/11 08:04:55;;;;;;;;;;;;;;;24.81;54.60;101080.23;1683090;83;20755;-79
2021/08/11 08:07:21;;;;;;;;;;;;;;;25.13;54.46;101077.18;1684147;84;20214;-79
2021/08/11 08:09:48;;;;;;;;;;;;;;;25.42;54.45;101072.02;1683937;84;20135;-79
2021/08/11 08:12:14;;;;;;;;;;;;;;;25.60;54.26;101071.16;1691431;84;20651;-79
2021/08/11 08:14:43;;;;;;;;;;;;;;;25.79;54.14;101075.55;1689970;83;20144;-79
2021/08/11 08:17:13;;;;;;;;;;;;;;;25.96;53.60;101080.95;1665309;84;20143;-79
2021/08/11 08:19:42;;;;;;;;;;;;;;;25.75;53.70;101077.20;1690585;83;20115;-79
2021/08/11 08:22:08;;;;;;;;;;;;;;;25.79;53.93;101076.87;1690034;84;20233;-79
2021/08/11 08:24:38;;;;;;;;;;;;;;;25.96;53.68;101078.30;1689160;83;20203;-79
2021/08/11 08:27:04;;;;;;;;;;;;;;;26.13;53.72;101073.05;1690509;84;20206;-79
2021/08/11 08:29:30;;;;;;;;;;;;;;;26.24;53.52;101075.28;1689965;83;20789;-79
2021/08/11 08:31:56;;;;;;;;;;;;;;;26.13;53.12;101077.03;1685922;83;20276;-79
2021/08/11 08:34:22;;;;;;;;;;;;;;;26.12;53.13;101076.19;1689614;83;20809;-80
2021/08/11 08:36:48;;;;;;;;;;;;;;;26.19;53.14;101073.45;1677024;84;20136;-80
2021/08/11 08:39:15;;;;;;;;;;;;;;;26.29;52.99;101067.83;1636466;84;21563;-79
2021/08/11 08:41:42;;;;;;;;;;;;;;;26.43;53.10;101073.95;1682022;83;20167;-79
2021/08/11 08:44:10;;;;;;;;;;;;;;;26.43;52.68;101075.27;1688853;84;20119;-79
2021/08/11 08:46:36;;;;;;;;;;;;;;;26.42;52.72;101078.88;1686566;84;20560;-80
2021/08/11 08:49:02;;;;;;;;;;;;;;;26.31;52.36;101080.53;1688502;83;20620;-80
2021/08/11 08:51:30;;;;;;;;;;;;;;;26.11;52.21;101074.97;1672140;83;20450;-80
2021/08/11 08:54:00;;;;;;;;;;;;;;;25.89;52.08;101081.02;1689919;83;20500;-80
2021/08/11 08:56:26;;;;;;;;;;;;;;;25.65;52.02;101072.56;1688392;83;20916;-80
2021/08/11 08:58:52;;;;;;;;;;;;;;;25.26;51.95;101080.67;1687004;84;20260;-80
2021/08/11 09:01:24;;;;;;;;;;;;;;;24.96;51.92;101084.48;1688779;84;20482;-80
2021/08/11 09:03:51;;;;;;;;;;;;;;;24.66;51.93;101079.47;1687867;83;20123;-80
2021/08/11 09:06:17;;;;;;;;;;;;;;;24.53;51.84;101087.85;1629932;85;20502;-80
2021/08/11 09:08:57;;;;;;;;;;;;;;;24.33;51.87;101088.35;1690601;83;20527;-80
2021/08/11 09:11:23;;;;;;;;;;;;;;;24.10;51.62;101084.53;1675220;84;20133;-80
2021/08/11 09:14:22;;;;;;;;;;;;;;;23.82;51.72;101084.17;1686182;84;20608;-80
2021/08/11 09:16:54;;;;;;;;;;;;;;;23.61;51.68;101089.01;1709567;82;20478;-80
2021/08/11 09:19:22;;;;;;;;;;;;;;;23.56;51.66;101086.28;1698963;84;20422;-80
2021/08/11 09:22:05;;;;;;;;;;;;;;;23.46;51.54;101089.93;1673103;82;20412;-80
2021/08/11 09:24:35;;;;;;;;;;;;;;;23.36;51.51;101090.16;1738158;82;20387;-80
2021/08/11 09:27:23;;;;;;;;;;;;;;;23.27;51.48;101092.04;1726063;82;20164;-80
2021/08/11 09:30:16;;;;;;;;;;;;;;;23.15;51.37;101094.10;1710864;82;20469;-80
2021/08/11 09:32:54;;;;;;;;;;;;;;;23.07;51.37;101095.88;1702995;84;20510;-79
2021/08/11 09:35:32;;;;;;;;;;;;;;;23.06;51.33;101091.55;1706123;82;20472;-79
2021/08/11 09:38:08;;;;;;;;;;;;;;;23.03;51.31;101091.27;1706953;82;20214;-79
2021/08/11 09:40:48;;;;;;;;;;;;;;;22.99;51.25;101091.54;1707933;82;20464;-79
2021/08/11 09:43:19;;;;;;;;;;;;;;;22.92;51.29;101093.69;1706321;82;20619;-79
2021/08/11 09:45:53;;;;;;;;;;;;;;;22.89;51.26;101094.34;1679616;83;20218;-79
2021/08/11 09:48:29;;;;;;;;;;;;;;;22.91;51.26;101096.42;1701778;84;20190;-79
2021/08/11 09:51:04;;;;;;;;;;;;;;;22.95;51.25;101097.94;1692473;84;20206;-79
2021/08/11 09:53:34;;;;;;;;;;;;;;;22.98;51.18;101093.33;1714006;82;20588;-79
2021/08/11 09:56:06;;;;;;;;;;;;;;;22.96;51.18;101094.36;1707650;83;20161;-79
2021/08/11 09:58:43;;;;;;;;;;;;;;;22.93;51.14;101095.86;1705541;82;20202;-79
2021/08/11 10:01:18;;;;;;;;;;;;;;;22.88;51.10;101095.28;1706492;82;20513;-79
2021/08/11 10:04:02;;;;;;;;;;;;;;;22.78;51.03;101097.62;1705933;82;20441;-80
2021/08/11 10:06:36;;;;;;;;;;;;;;;22.64;51.12;101103.70;1674802;84;20648;-80
2021/08/11 10:09:16;;;;;;;;;;;;;;;22.63;51.33;101098.52;1679377;82;20209;-80
2021/08/11 10:11:54;;;;;;;;;;;;;;;22.69;51.37;101095.05;1673698;84;20686;-80
2021/08/11 10:14:30;;;;;;;;;;;;;;;22.84;51.38;101097.28;1698045;83;21051;-80
2021/08/11 10:16:59;;;;;;;;;;;;;;;22.96;51.08;101089.94;1690323;83;20198;-80
2021/08/11 10:19:28;;;;;;;;;;;;;;;22.95;50.94;101090.87;1695804;83;20234;-80
2021/08/11 10:22:02;;;;;;;;;;;;;;;22.90;50.85;101098.68;1698290;83;20634;-80
2021/08/11 10:24:50;;;;;;;;;;;;;;;22.87;50.90;101105.02;1697761;83;20445;-80
2021/08/11 10:27:19;;;;;;;;;;;;;;;22.86;50.81;101112.55;1695713;84;20494;-80
2021/08/11 10:29:46;;;;;;;;;;;;;;;22.83;50.91;101108.77;1696068;83;20138;-79
2021/08/11 10:32:13;;;;;;;;;;;;;;;22.72;50.78;101117.28;1693778;83;20202;-79
2021/08/11 10:34:58;;;;;;;;;;;;;;;22.65;50.93;101113.30;1692919;83;20183;-79
2021/08/11 10:37:38;;;;;;;;;;;;;;;22.55;50.92;101118.73;1695021;83;20565;-79
2021/08/11 10:40:05;;;;;;;;;;;;;;;22.48;50.91;101116.53;1690199;83;20554;-78
2021/08/11 10:42:31;;;;;;;;;;;;;;;22.42;50.91;101117.27;1664669;84;20218;-78
2021/08/11 10:45:00;;;;;;;;;;;;;;;22.44;50.86;101126.40;1695071;83;20506;-78
2021/08/11 10:47:34;;;;;;;;;;;;;;;22.50;50.79;101117.30;1695234;83;20178;-78
2021/08/11 10:50:03;;;;;;;;;;;;;;;22.58;50.82;101121.66;1671259;83;20499;-78
2021/08/11 10:52:31;;;;;;;;;;;;;;;22.64;50.68;101123.94;1698444;83;20095;-78
2021/08/11 10:55:05;;;;;;;;;;;;;;;22.65;50.67;101123.85;1696653;83;20107;-78
2021/08/11 10:57:38;;;;;;;;;;;;;;;22.69;50.68;101116.61;1695143;84;20103;-79
2021/08/11 11:00:10;;;;;;;;;;;;;;;22.75;50.68;101125.02;1695665;83;20529;-79
2021/08/11 11:02:43;;;;;;;;;;;;;;;22.91;50.92;101117.05;1695719;83;20107;-79
2021/08/11 11:05:22;;;;;;;;;;;;;;;23.09;50.85;101118.59;1695870;83;20139;-79
2021/08/11 11:08:15;;;;;;;;;;;;;;;23.24;50.67;101108.91;1695688;83;20129;-80
2021/08/11 11:11:20;;;;;;;;;;;;;;;23.33;50.51;101116.73;1692764;83;20103;-78
2021/08/11 11:13:46;;;;;;;;;;;;;;;23.46;50.52;101126.89;1692173;83;20114;-78
2021/08/11 11:16:15;;;;;;;;;;;;;;;23.54;50.34;101125.98;1690074;83;20469;-78
2021/08/11 11:18:59;;;;;;;;;;;;;;;23.65;50.37;101120.03;1691474;84;20187;-78
2021/08/11 11:21:44;;;;;;;;;;;;;;;23.76;50.23;101126.34;1604144;87;20279;-78
2021/08/11 11:24:49;;;;;;;;;;;;;;;23.77;50.19;101128.51;1681784;83;20517;-78
2021/08/11 11:27:52;;;;;;;;;;;;;;;23.78;50.08;101132.00;1691886;84;20174;-78
2021/08/11 11:30:34;;;;;;;;;;;;;;;23.68;50.10;101129.93;1689936;83;20179;-78
2021/08/11 11:33:28;;;;;;;;;;;;;;;23.63;50.26;101137.76;1692739;83;20521;-78
2021/08/11 11:36:18;;;;;;;;;;;;;;;23.54;49.95;101122.48;1691617;83;20426;-78
2021/08/11 11:39:05;;;;;;;;;;;;;;;23.44;50.11;101127.45;1690049;83;20097;-78
2021/08/11 11:41:32;;;;;;;;;;;;;;;23.27;49.99;101130.30;1672448;84;20542;-78
2021/08/11 11:44:47;;;;;;;;;;;;;;;23.23;49.87;101128.79;1701575;82;20559;-78
2021/08/11 11:47:20;;;;;;;;;;;;;;;23.23;49.81;101119.08;1685130;84;20533;-78
2021/08/11 11:50:22;;;;;;;;;;;;;;;23.27;49.81;101119.27;1685514;83;20105;-78
2021/08/11 11:53:07;;;;;;;;;;;;;;;23.31;49.70;101122.58;1695730;84;20141;-78
2021/08/11 11:55:42;;;;;;;;;;;;;;;23.48;49.74;101117.55;1685009;84;20423;-78
2021/08/11 11:58:12;;;;;;;;;;;;;;;23.64;49.56;101111.26;1687619;84;20093;-77
2021/08/11 12:01:04;;;;;;;;;;;;;;;23.77;49.50;101108.70;1669222;84;20114;-77
2021/08/11 12:03:41;;;;;;;;;;;;;;;23.98;49.38;101113.06;1682742;83;20166;-77
2021/08/11 12:06:11;;;;;;;;;;;;;;;23.99;49.11;101114.29;1668095;83;20130;-77
2021/08/11 12:08:37;;;;;;;;;;;;;;;23.93;49.15;101105.91;1692903;84;20150;-77
2021/08/11 12:11:14;;;;;;;;;;;;;;;23.82;49.06;101108.41;1690993;83;20138;-77
2021/08/11 12:13:49;;;;;;;;;;;;;;;23.80;49.24;101106.34;1705542;83;20125;-77
2021/08/11 12:16:27;;;;;;;;;;;;;;;23.84;49.23;101101.23;1694355;83;20174;-77
2021/08/11 12:18:53;;;;;;;;;;;;;;;23.91;49.11;101106.03;1692248;83;20127;-77
2021/08/11 12:21:20;;;;;;;;;;;;;;;23.96;49.05;101109.67;1697470;83;20151;-77
2021/08/11 12:23:50;;;;;;;;;;;;;;;23.89;48.84;101109.25;1677942;83;20125;-77
2021/08/11 12:26:16;;;;;;;;;;;;;;;23.79;48.91;101108.60;1700468;83;20094;-77
2021/08/11 12:28:51;;;;;;;;;;;;;;;23.75;48.99;101103.52;1697639;83;20115;-77
2021/08/11 12:31:34;;;;;;;;;;;;;;;23.71;48.90;101107.30;1700296;83;20131;-77
2021/08/11 12:34:14;;;;;;;;;;;;;;;23.64;48.90;101105.98;1701667;83;20120;-77
2021/08/11 12:36:41;;;;;;;;;;;;;;;23.51;48.90;101104.16;1701754;83;20147;-77
2021/08/11 12:39:11;;;;;;;;;;;;;;;23.44;48.82;101108.97;1649044;84;20140;-77
2021/08/11 12:42:03;;;;;;;;;;;;;;;23.40;48.83;101111.42;1698794;83;20161;-77
2021/08/11 12:44:53;;;;;;;;;;;;;;;23.36;48.81;101109.95;1698895;83;20411;-77
2021/08/11 12:47:25;;;;;;;;;;;;;;;23.25;48.67;101105.80;1672333;83;20142;-77
2021/08/11 12:49:51;;;;;;;;;;;;;;;23.16;48.64;101108.98;1657866;83;20162;-77
2021/08/11 12:52:19;;;;;;;;;;;;;;;23.09;48.64;101109.36;1694327;83;20367;-77
2021/08/11 12:55:05;;;;;;;;;;;;;;;23.06;48.63;101112.19;1690308;83;20749;-77